Time;durP1;ratioP1;P1;durP2;ratioP2;P2;SDS_P1;SDS_P2;PMS_P1;PMS_P2;Temp;Humidity;BMP_temperature;BMP_pressure;BME280_temperature;BME280_humidity;BME280_pressure;Samples;Min_cycle;Max_cycle;Signal;HPM_P1;HPM_P2
2023/02/11 00:01:28;;;;;;;17.02;12.07;;;;;;;7.60;100.00;103377.94;5276961;28;20036;-70
2023/02/11 00:04:01;;;;;;;22.33;12.07;;;;;;;7.57;100.00;103368.44;5273067;28;20021;-70
2023/02/11 00:06:34;;;;;;;18.02;11.90;;;;;;;7.51;100.00;103363.44;5270227;28;20024;-70
2023/02/11 00:09:05;;;;;;;21.35;11.55;;;;;;;7.51;100.00;103358.22;5273106;28;20053;-70
2023/02/11 00:11:37;;;;;;;21.13;11.73;;;;;;;7.50;100.00;103361.72;5276027;28;20486;-70
2023/02/11 00:14:10;;;;;;;20.02;12.00;;;;;;;7.53;100.00;103359.84;5275125;28;20070;-70
2023/02/11 00:16:41;;;;;;;16.77;10.73;;;;;;;7.50;100.00;103362.59;5274946;28;20052;-69
2023/02/11 00:19:12;;;;;;;17.60;10.93;;;;;;;7.52;100.00;103352.09;5274606;28;20028;-70
2023/02/11 00:21:44;;;;;;;16.83;10.40;;;;;;;7.49;100.00;103344.34;5269919;28;21939;-70
2023/02/11 00:24:15;;;;;;;17.73;10.68;;;;;;;7.52;100.00;103344.25;5273772;28;20024;-70
2023/02/11 00:26:46;;;;;;;18.42;10.07;;;;;;;7.57;100.00;103343.19;5276826;28;20012;-70
2023/02/11 00:29:17;;;;;;;17.70;10.55;;;;;;;7.51;100.00;103348.63;5275316;28;20143;-69
2023/02/11 00:31:49;;;;;;;17.38;9.55;;;;;;;7.50;100.00;103352.16;5273814;28;20385;-70
2023/02/11 00:34:20;;;;;;;18.33;9.75;;;;;;;7.48;100.00;103353.09;5274582;28;20477;-69
2023/02/11 00:36:52;;;;;;;14.70;9.55;;;;;;;7.47;100.00;103357.47;5273324;28;20577;-70
2023/02/11 00:39:24;;;;;;;15.25;9.13;;;;;;;7.42;100.00;103346.28;5271836;28;20435;-70
2023/02/11 00:41:55;;;;;;;18.80;9.48;;;;;;;7.49;100.00;103350.41;5272441;28;20028;-69
2023/02/11 00:44:27;;;;;;;16.70;9.82;;;;;;;7.49;100.00;103349.56;5275927;28;20368;-70
2023/02/11 00:46:58;;;;;;;13.57;9.00;;;;;;;7.50;100.00;103352.16;5275234;28;20036;-70
2023/02/11 00:49:29;;;;;;;15.70;8.65;;;;;;;7.49;100.00;103345.19;5269821;28;20028;-70
2023/02/11 00:52:01;;;;;;;16.17;8.93;;;;;;;7.54;100.00;103340.72;5272346;28;20032;-70
2023/02/11 00:54:32;;;;;;;13.13;8.30;;;;;;;7.52;100.00;103339.06;5257101;28;20031;-70
2023/02/11 00:57:03;;;;;;;14.70;8.68;;;;;;;7.53;100.00;103351.19;5272775;28;20399;-70
2023/02/11 00:59:35;;;;;;;15.73;8.25;;;;;;;7.50;100.00;103344.31;5254450;28;20021;-70
2023/02/11 01:02:06;;;;;;;16.60;8.52;;;;;;;7.51;100.00;103335.59;5276114;28;20058;-69
2023/02/11 01:04:37;;;;;;;12.27;7.25;;;;;;;7.54;100.00;103337.25;5271768;28;20024;-70
2023/02/11 01:07:09;;;;;;;16.50;8.50;;;;;;;7.54;100.00;103343.31;5270078;28;20020;-69
2023/02/11 01:09:40;;;;;;;15.15;8.10;;;;;;;7.56;100.00;103343.25;5276306;28;20035;-70
2023/02/11 01:12:11;;;;;;;15.07;8.20;;;;;;;7.57;100.00;103344.97;5274505;28;20542;-70
2023/02/11 01:14:43;;;;;;;15.65;8.05;;;;;;;7.59;100.00;103347.53;5272821;28;20056;-70
2023/02/11 01:17:14;;;;;;;15.20;7.95;;;;;;;7.55;100.00;103357.22;5276454;28;20035;-69
2023/02/11 01:19:46;;;;;;;12.27;8.00;;;;;;;7.56;100.00;103349.31;5270385;28;20032;-70
2023/02/11 01:22:17;;;;;;;17.48;8.40;;;;;;;7.53;100.00;103354.63;5274105;28;20025;-70
2023/02/11 01:24:48;;;;;;;15.32;8.02;;;;;;;7.53;100.00;103359.00;5275320;28;20531;-70
2023/02/11 01:27:19;;;;;;;17.77;8.02;;;;;;;7.52;100.00;103355.53;5274480;28;20107;-70
2023/02/11 01:29:51;;;;;;;15.18;8.00;;;;;;;7.55;100.00;103370.25;5278373;28;20509;-69
2023/02/11 01:32:22;;;;;;;12.68;7.93;;;;;;;7.56;100.00;103364.97;5261232;28;20487;-69
2023/02/11 01:34:53;;;;;;;14.50;8.05;;;;;;;7.54;100.00;103358.13;5276355;28;20393;-70
2023/02/11 01:37:25;;;;;;;17.25;7.95;;;;;;;7.54;100.00;103363.34;5267592;28;20077;-70
2023/02/11 01:39:56;;;;;;;17.35;7.72;;;;;;;7.55;100.00;103354.59;5278872;28;20020;-70
2023/02/11 01:42:27;;;;;;;16.60;8.07;;;;;;;7.54;100.00;103348.53;5278808;28;20111;-70
2023/02/11 01:45:01;;;;;;;18.27;7.90;;;;;;;7.56;100.00;103341.50;5277365;28;20036;-70
2023/02/11 01:47:32;;;;;;;18.10;7.95;;;;;;;7.52;100.00;103339.06;5276222;28;20016;-70
2023/02/11 01:50:03;;;;;;;17.35;7.50;;;;;;;7.48;100.00;103332.22;5259928;28;20093;-70
2023/02/11 01:52:39;;;;;;;15.65;7.90;;;;;;;7.54;100.00;103332.03;5259398;28;20028;-70
2023/02/11 01:58:04;;;;;;;15.40;7.53;;;;;;;7.47;100.00;103330.53;5278508;28;20059;-70
2023/02/11 02:00:37;;;;;;;13.68;8.15;;;;;;;7.49;100.00;103321.72;5276585;28;20389;-69
2023/02/11 02:03:13;;;;;;;13.57;8.15;;;;;;;7.49;100.00;103329.56;5254745;28;20036;-69
2023/02/11 02:05:54;;;;;;;12.20;7.50;;;;;;;7.41;100.00;103317.66;5270445;28;20260;-70
2023/02/11 02:08:45;;;;;;;13.57;6.57;;;;;;;7.49;100.00;103324.34;5276104;28;20064;-70
2023/02/11 02:11:17;;;;;;;12.40;7.20;;;;;;;7.40;100.00;103329.84;5275795;28;20120;-70
2023/02/11 02:13:48;;;;;;;16.13;7.80;;;;;;;7.37;100.00;103318.66;5278608;28;20329;-70
2023/02/11 02:16:23;;;;;;;14.45;7.30;;;;;;;7.37;100.00;103314.31;5276339;28;20091;-70
2023/02/11 02:19:13;;;;;;;16.77;7.75;;;;;;;7.57;100.00;103318.88;5277492;28;20150;-70
2023/02/11 02:22:28;;;;;;;16.35;7.65;;;;;;;7.61;100.00;103322.25;5260644;28;20036;-69
2023/02/11 02:25:37;;;;;;;15.15;7.25;;;;;;;7.65;100.00;103323.84;5276569;28;20028;-69
2023/02/11 02:28:30;;;;;;;16.25;7.35;;;;;;;7.45;100.00;103321.88;5272943;28;20118;-70
2023/02/11 02:31:45;;;;;;;16.40;7.10;;;;;;;7.58;100.00;103323.22;5277041;28;20111;-69
2023/02/11 02:34:41;;;;;;;13.65;6.95;;;;;;;7.51;100.00;103327.75;5274729;28;20078;-69
2023/02/11 02:37:48;;;;;;;14.68;7.38;;;;;;;7.50;100.00;103320.84;5270774;28;20036;-70
2023/02/11 02:40:28;;;;;;;16.80;7.38;;;;;;;7.34;100.00;103324.81;5273443;28;20028;-69
2023/02/11 02:43:01;;;;;;;13.68;6.88;;;;;;;7.29;100.00;103331.94;5276006;28;20519;-70
2023/02/11 02:45:32;;;;;;;16.05;8.38;;;;;;;7.24;100.00;103328.66;5277621;28;20033;-70
2023/02/11 02:48:04;;;;;;;13.93;7.10;;;;;;;7.24;100.00;103315.59;5278771;28;20040;-70
2023/02/11 02:50:36;;;;;;;17.65;7.40;;;;;;;7.22;100.00;103315.63;5276329;28;20032;-70
2023/02/11 02:53:24;;;;;;;12.97;6.80;;;;;;;7.38;100.00;103308.19;5276773;28;20032;-70
2023/02/11 02:56:13;;;;;;;13.68;7.25;;;;;;;7.36;100.00;103317.81;5258259;28;20067;-69
2023/02/11 02:58:58;;;;;;;14.27;7.10;;;;;;;7.29;100.00;103308.47;5275314;28;20687;-69
2023/02/11 03:02:09;;;;;;;13.32;7.03;;;;;;;7.46;100.00;103324.47;5274681;28;20040;-70
2023/02/11 03:05:05;;;;;;;17.98;7.30;;;;;;;7.37;100.00;103326.50;5262537;28;20135;-70
2023/02/11 03:07:45;;;;;;;17.83;8.40;;;;;;;7.33;100.00;103325.75;5274467;28;20377;-70
2023/02/11 03:10:35;;;;;;;12.35;7.28;;;;;;;7.45;100.00;103319.28;5277411;28;20062;-70
2023/02/11 03:13:08;;;;;;;13.30;6.70;;;;;;;7.26;100.00;103322.47;5272178;28;20029;-69
2023/02/11 03:15:47;;;;;;;14.23;6.88;;;;;;;7.37;100.00;103316.91;5259085;28;20082;-69
2023/02/11 03:18:23;;;;;;;17.02;6.82;;;;;;;7.33;100.00;103312.69;5262963;28;20409;-70
2023/02/11 03:20:56;;;;;;;14.00;7.38;;;;;;;7.25;100.00;103305.13;5275901;28;20451;-69
2023/02/11 03:23:43;;;;;;;16.95;7.88;;;;;;;7.23;100.00;103312.13;5275868;28;20520;-69
2023/02/11 03:26:25;;;;;;;17.73;6.82;;;;;;;7.29;100.00;103301.50;5274573;28;20115;-69
2023/02/11 03:29:22;;;;;;;12.60;7.18;;;;;;;7.20;100.00;103306.19;5274921;28;20554;-70
2023/02/11 03:32:04;;;;;;;13.57;6.78;;;;;;;7.27;100.00;103302.44;5248337;28;20037;-70
2023/02/11 03:34:59;;;;;;;14.90;6.78;;;;;;;7.30;100.00;103307.56;5274286;28;20041;-69
2023/02/11 03:37:47;;;;;;;12.55;6.32;;;;;;;7.39;100.00;103309.91;5276722;28;20073;-70
2023/02/11 03:40:25;;;;;;;14.38;7.40;;;;;;;7.38;100.00;103305.56;5272325;28;20046;-70
2023/02/11 03:43:26;;;;;;;18.85;6.90;;;;;;;7.50;100.00;103304.31;5273694;28;20052;-70
2023/02/11 03:46:00;;;;;;;14.88;6.78;;;;;;;7.26;100.00;103306.81;5267240;28;20048;-69
2023/02/11 03:48:37;;;;;;;13.05;6.55;;;;;;;7.29;100.00;103313.69;5275786;28;20488;-70
2023/02/11 03:51:11;;;;;;;16.20;6.78;;;;;;;7.22;100.00;103315.63;5276979;28;20031;-70
2023/02/11 03:53:45;;;;;;;14.70;7.03;;;;;;;7.29;100.00;103319.75;5272267;28;20424;-69
2023/02/11 03:56:20;;;;;;;14.68;6.70;;;;;;;7.29;100.00;103318.91;5272229;28;20040;-69
2023/02/11 03:58:51;;;;;;;14.88;6.50;;;;;;;7.26;100.00;103321.59;5273914;28;20517;-69
2023/02/11 04:01:22;;;;;;;14.55;7.10;;;;;;;7.26;100.00;103319.00;5273090;28;20073;-69
2023/02/11 04:03:54;;;;;;;14.25;6.47;;;;;;;7.27;100.00;103316.38;5275451;28;20119;-70
2023/02/11 04:06:25;;;;;;;12.88;6.45;;;;;;;7.29;100.00;103311.94;5274502;28;20493;-69
2023/02/11 04:08:56;;;;;;;18.02;7.47;;;;;;;7.30;100.00;103300.59;5276561;28;20101;-70
2023/02/11 04:11:27;;;;;;;10.50;6.72;;;;;;;7.30;100.00;103298.00;5274886;28;20063;-70
2023/02/11 04:13:59;;;;;;;15.48;6.97;;;;;;;7.26;100.00;103291.16;5276492;28;20203;-70
2023/02/11 04:16:30;;;;;;;16.27;6.88;;;;;;;7.23;100.00;103283.44;5275086;28;20604;-70
2023/02/11 04:19:02;;;;;;;17.45;7.35;;;;;;;7.25;100.00;103286.88;5275263;28;20052;-70
2023/02/11 04:21:33;;;;;;;14.10;6.93;;;;;;;7.26;100.00;103282.50;5270075;28;20025;-70
2023/02/11 04:24:04;;;;;;;15.38;6.78;;;;;;;7.22;100.00;103278.28;5274796;28;20484;-70
2023/02/11 04:26:36;;;;;;;20.48;7.88;;;;;;;7.20;100.00;103274.88;5273901;28;20122;-70
2023/02/11 04:29:07;;;;;;;12.80;7.13;;;;;;;7.20;100.00;103274.88;5274044;28;20040;-70
2023/02/11 04:31:38;;;;;;;12.40;6.80;;;;;;;7.25;100.00;103270.38;5273571;28;20488;-70
2023/02/11 04:34:10;;;;;;;15.07;7.45;;;;;;;7.24;100.00;103271.28;5275867;28;20032;-70
2023/02/11 04:36:41;;;;;;;13.90;6.57;;;;;;;7.26;100.00;103275.53;5276160;28;20115;-70
2023/02/11 04:39:12;;;;;;;13.27;7.50;;;;;;;7.24;100.00;103266.06;5273251;28;20107;-70
2023/02/11 04:41:44;;;;;;;12.13;7.55;;;;;;;7.24;100.00;103276.50;5271608;28;20538;-70
2023/02/11 04:44:15;;;;;;;13.00;6.68;;;;;;;7.23;100.00;103280.84;5275541;28;20028;-70
2023/02/11 04:46:47;;;;;;;18.38;7.97;;;;;;;7.23;100.00;103280.84;5274093;28;20027;-70
2023/02/11 04:49:18;;;;;;;17.15;7.65;;;;;;;7.23;100.00;103279.97;5274746;28;20028;-70
2023/02/11 04:51:49;;;;;;;15.02;7.75;;;;;;;7.25;100.00;103288.63;5273316;28;20071;-70
2023/02/11 04:54:21;;;;;;;17.70;8.63;;;;;;;7.25;100.00;103288.63;5271809;28;20082;-70
2023/02/11 04:56:52;;;;;;;14.50;8.13;;;;;;;7.28;100.00;103291.13;5270921;28;20031;-70
2023/02/11 04:59:23;;;;;;;16.52;7.63;;;;;;;7.29;100.00;103292.84;5258143;28;20021;-70
2023/02/11 05:01:55;;;;;;;13.73;7.82;;;;;;;7.31;100.00;103293.63;5275339;28;20112;-70
2023/02/11 05:04:26;;;;;;;16.77;8.15;;;;;;;7.34;100.00;103290.94;5273346;28;20024;-70
2023/02/11 05:06:58;;;;;;;17.52;8.50;;;;;;;7.34;100.00;103293.53;5274757;28;20031;-70
2023/02/11 05:09:29;;;;;;;17.02;8.80;;;;;;;7.37;100.00;103292.59;5274343;28;20078;-70
2023/02/11 05:12:00;;;;;;;16.98;8.40;;;;;;;7.34;100.00;103292.69;5274768;28;20037;-70
2023/02/11 05:14:32;;;;;;;16.35;8.30;;;;;;;7.34;100.00;103288.31;5270372;28;20054;-70
2023/02/11 05:17:03;;;;;;;19.00;8.52;;;;;;;7.34;100.00;103298.75;5275165;28;20033;-70
2023/02/11 05:19:34;;;;;;;18.25;8.55;;;;;;;7.37;100.00;103303.03;5274011;28;20052;-70
2023/02/11 05:22:06;;;;;;;16.75;9.18;;;;;;;7.34;100.00;103298.75;5271744;28;20600;-70
2023/02/11 05:24:37;;;;;;;17.83;9.80;;;;;;;7.37;100.00;103285.63;5274640;28;20044;-70
2023/02/11 05:27:08;;;;;;;17.67;9.35;;;;;;;7.35;100.00;103290.03;5275779;28;20039;-70
2023/02/11 05:29:39;;;;;;;18.98;9.02;;;;;;;7.34;100.00;103285.72;5273344;28;20048;-70
2023/02/11 05:32:11;;;;;;;17.10;8.95;;;;;;;7.43;100.00;103292.41;5270485;28;20067;-70
2023/02/11 05:34:42;;;;;;;18.15;9.75;;;;;;;7.40;100.00;103284.69;5275477;28;20027;-70
2023/02/11 05:37:13;;;;;;;17.63;9.95;;;;;;;7.41;100.00;103287.22;5274192;28;20032;-70
2023/02/11 05:39:45;;;;;;;20.10;10.13;;;;;;;7.35;100.00;103274.41;5275076;28;20024;-70
2023/02/11 05:42:16;;;;;;;15.77;9.43;;;;;;;7.40;100.00;103266.41;5279005;22;20061;-77
2023/02/11 05:44:47;;;;;;;17.52;9.30;;;;;;;7.33;100.00;103265.75;5242215;28;20028;-77
2023/02/11 05:47:19;;;;;;;22.33;10.20;;;;;;;7.40;100.00;103266.41;5259245;28;20032;-76
2023/02/11 05:49:50;;;;;;;19.20;10.38;;;;;;;7.36;100.00;103262.22;5244353;28;20024;-77
2023/02/11 05:52:22;;;;;;;13.70;10.13;;;;;;;7.36;100.00;103275.25;5259571;28;20048;-77
2023/02/11 05:54:54;;;;;;;20.75;11.00;;;;;;;7.37;100.00;103277.78;5260207;28;20081;-77
2023/02/11 05:57:25;;;;;;;19.02;11.52;;;;;;;7.31;100.00;103270.16;5244615;28;20477;-77
2023/02/11 05:59:56;;;;;;;19.10;11.35;;;;;;;7.27;100.00;103265.94;5245478;28;20068;-77
2023/02/11 06:02:27;;;;;;;18.25;11.50;;;;;;;7.32;100.00;103275.34;5263236;28;20099;-77
2023/02/11 06:04:59;;;;;;;18.63;11.55;;;;;;;7.29;100.00;103274.59;5244002;28;20085;-77
2023/02/11 06:07:30;;;;;;;21.38;12.30;;;;;;;7.30;100.00;103271.91;5265159;28;20023;-77
2023/02/11 06:10:02;;;;;;;22.95;12.88;;;;;;;7.30;100.00;103279.75;5244535;28;20068;-77
2023/02/11 06:12:34;;;;;;;17.77;12.43;;;;;;;7.29;100.00;103282.41;5267789;28;20547;-77
2023/02/11 06:15:06;;;;;;;18.48;12.38;;;;;;;7.29;100.00;103285.00;5267617;28;20489;-76
2023/02/11 06:17:37;;;;;;;19.35;12.70;;;;;;;7.30;100.00;103286.72;5268077;28;20108;-77
2023/02/11 06:20:09;;;;;;;19.90;13.13;;;;;;;7.26;100.00;103264.25;5267064;28;20028;-76
2023/02/11 06:22:41;;;;;;;20.15;12.82;;;;;;;7.30;100.00;103284.94;5264002;28;20068;-77
2023/02/11 06:25:12;;;;;;;21.17;12.75;;;;;;;7.35;100.00;103289.16;5269224;28;20021;-76
2023/02/11 06:27:43;;;;;;;21.75;14.85;;;;;;;7.39;100.00;103289.03;5269559;28;20028;-77
2023/02/11 06:30:14;;;;;;;22.17;14.57;;;;;;;7.40;100.00;103284.69;5268892;28;20020;-77
2023/02/11 06:32:46;;;;;;;23.73;14.68;;;;;;;7.42;100.00;103283.69;5264318;28;20044;-77
2023/02/11 06:35:17;;;;;;;24.95;14.20;;;;;;;7.45;100.00;103296.66;5265654;28;20040;-77
2023/02/11 06:37:48;;;;;;;24.70;15.20;;;;;;;7.46;100.00;103292.28;5267977;28;20096;-78
2023/02/11 06:40:20;;;;;;;28.70;16.45;;;;;;;7.45;100.00;103281.00;5271089;28;20470;-78
2023/02/11 06:42:51;;;;;;;23.50;16.20;;;;;;;7.39;100.00;103277.75;5267556;28;20044;-76
2023/02/11 06:45:23;;;;;;;25.50;17.92;;;;;;;7.47;100.00;103279.22;5266362;28;20036;-77
2023/02/11 06:47:54;;;;;;;24.25;15.98;;;;;;;7.50;100.00;103294.75;5266260;28;20023;-77
2023/02/11 06:50:25;;;;;;;28.10;16.30;;;;;;;7.53;100.00;103293.78;5247009;28;20036;-77
2023/02/11 06:52:58;;;;;;;27.27;17.17;;;;;;;7.50;100.00;103288.66;5268107;28;20394;-77
2023/02/11 06:55:30;;;;;;;26.23;17.38;;;;;;;7.51;100.00;103301.69;5264896;28;20029;-77
2023/02/11 06:58:01;;;;;;;26.45;17.35;;;;;;;7.50;100.00;103302.59;5267910;28;20370;-77
2023/02/11 07:00:32;;;;;;;27.75;18.10;;;;;;;7.52;100.00;103303.38;5250971;28;20027;-77
2023/02/11 07:03:04;;;;;;;24.65;17.42;;;;;;;7.54;100.00;103306.81;5259025;28;20291;-77
2023/02/11 07:05:37;;;;;;;26.92;17.23;;;;;;;7.54;100.00;103305.94;5241914;28;20040;-77
2023/02/11 07:08:08;;;;;;;30.15;18.77;;;;;;;7.53;100.00;103305.06;5268313;28;20024;-77
2023/02/11 07:10:40;;;;;;;27.58;18.67;;;;;;;7.55;100.00;103303.28;5266362;28;20028;-76
2023/02/11 07:13:11;;;;;;;25.25;18.98;;;;;;;7.52;100.00;103311.19;5263222;28;20243;-77
2023/02/11 07:15:42;;;;;;;29.40;19.52;;;;;;;7.55;100.00;103310.25;5264825;28;20025;-77
2023/02/11 07:18:13;;;;;;;30.88;19.75;;;;;;;7.58;100.00;103315.38;5267810;28;20024;-77
2023/02/11 07:20:45;;;;;;;29.77;20.05;;;;;;;7.60;100.00;103323.16;5264549;28;20051;-77
2023/02/11 07:23:16;;;;;;;30.20;18.52;;;;;;;7.57;100.00;103322.34;5267152;28;20036;-77
2023/02/11 07:25:47;;;;;;;31.85;19.20;;;;;;;7.60;100.00;103328.38;5267794;28;20035;-77
2023/02/11 07:28:19;;;;;;;35.50;19.88;;;;;;;7.59;100.00;103330.13;5263184;28;20032;-77
2023/02/11 07:30:50;;;;;;;34.40;20.85;;;;;;;7.62;100.00;103329.19;5262021;28;20040;-77
2023/02/11 07:33:22;;;;;;;30.55;20.77;;;;;;;7.64;100.00;103330.81;5240838;28;20037;-77
2023/02/11 07:35:53;;;;;;;32.28;20.48;;;;;;;7.69;100.00;103331.53;5262133;28;20037;-77
2023/02/11 07:38:26;;;;;;;34.57;21.23;;;;;;;7.71;100.00;103331.47;5261942;28;20211;-77
2023/02/11 07:41:06;;;;;;;31.88;22.77;;;;;;;7.83;100.00;103325.00;5261337;28;20123;-77
2023/02/11 07:43:38;;;;;;;36.80;22.60;;;;;;;7.65;100.00;103329.94;5242710;28;20468;-77
2023/02/11 07:46:13;;;;;;;35.78;23.48;;;;;;;7.84;100.00;103340.63;5264973;28;20033;-77
2023/02/11 07:48:44;;;;;;;34.25;25.42;;;;;;;7.75;100.00;103330.47;5268440;28;20036;-77
2023/02/11 07:51:16;;;;;;;35.63;23.05;;;;;;;7.80;100.00;103346.81;5264926;28;20474;-77
2023/02/11 07:53:47;;;;;;;40.45;24.92;;;;;;;7.83;100.00;103348.47;5260283;28;20039;-77
2023/02/11 07:56:19;;;;;;;34.83;24.45;;;;;;;7.85;100.00;103357.13;5268970;28;20057;-76
2023/02/11 07:58:51;;;;;;;39.00;24.52;;;;;;;7.82;100.00;103352.84;5268190;28;20029;-77
2023/02/11 08:01:27;;;;;;;41.00;25.33;;;;;;;7.92;100.00;103351.66;5262789;28;20371;-77
2023/02/11 08:04:00;;;;;;;39.47;25.98;;;;;;;7.89;100.00;103348.28;5263985;28;20048;-77
2023/02/11 08:06:32;;;;;;;;;;;;;;;8.51;100.00;103359.19;5265327;28;20521;-77
2023/02/11 08:09:06;;;;;;;40.17;24.60;;;;;;;8.03;100.00;103359.97;5259289;28;19963;-77
2023/02/11 08:11:37;;;;;;;36.50;26.27;;;;;;;7.95;100.00;103348.91;5260644;28;20296;-77
2023/02/11 08:14:09;;;;;;;42.65;27.75;;;;;;;7.94;100.00;103354.19;5261280;28;20029;-77
2023/02/11 08:16:40;;;;;;;44.53;27.52;;;;;;;7.95;100.00;103356.75;5244630;28;20028;-77
2023/02/11 08:19:14;;;;;;;38.88;26.10;;;;;;;8.00;100.00;103356.63;5263690;28;20540;-77
2023/02/11 08:21:46;;;;;;;45.80;26.85;;;;;;;7.96;100.00;103358.47;5260185;28;20307;-77
2023/02/11 08:24:17;;;;;;;45.65;27.10;;;;;;;8.00;100.00;103372.28;5263292;28;20404;-77
2023/02/11 08:26:48;;;;;;;43.78;27.73;;;;;;;7.99;100.00;103371.44;5267004;28;20381;-77
2023/02/11 08:29:20;;;;;;;37.55;26.60;;;;;;;8.02;100.00;103366.09;5246313;28;20028;-77
2023/02/11 08:31:51;;;;;;;41.38;26.20;;;;;;;8.01;100.00;103363.53;5234390;28;20580;-77
2023/02/11 08:34:22;;;;;;;41.38;28.45;;;;;;;8.08;100.00;103362.44;5246943;28;20021;-77
2023/02/11 08:36:56;;;;;;;44.45;28.70;;;;;;;8.10;100.00;103362.38;5243544;28;20027;-77
2023/02/11 08:39:27;;;;;;;44.92;28.10;;;;;;;8.09;100.00;103371.09;5260173;28;20438;-77
2023/02/11 08:41:58;;;;;;;43.00;28.25;;;;;;;8.11;100.00;103369.31;5262716;28;20052;-77
2023/02/11 08:44:30;;;;;;;44.35;29.23;;;;;;;8.13;100.00;103370.09;5260047;28;20112;-77
2023/02/11 08:47:01;;;;;;;43.08;29.60;;;;;;;8.14;100.00;103358.75;5262867;28;20113;-77
2023/02/11 08:49:32;;;;;;;43.30;28.90;;;;;;;8.16;100.00;103370.00;5260906;28;20117;-77
2023/02/11 08:52:04;;;;;;;50.55;29.60;;;;;;;8.20;100.00;103371.59;5263156;28;20477;-77
2023/02/11 08:54:36;;;;;;;41.30;29.65;;;;;;;8.18;100.00;103369.06;5264209;28;20020;-77
2023/02/11 08:57:07;;;;;;;51.25;30.60;;;;;;;8.20;100.00;103369.84;5263450;28;20056;-77
2023/02/11 08:59:38;;;;;;;49.17;30.75;;;;;;;8.26;100.00;103377.47;5263248;28;20104;-78
2023/02/11 09:02:14;;;;;;;46.05;30.02;;;;;;;8.34;100.00;103376.34;5260488;28;20070;-77
2023/02/11 09:04:45;;;;;;;49.05;30.73;;;;;;;8.28;100.00;103378.25;5257581;28;20110;-77
2023/02/11 09:07:16;;;;;;;49.95;30.48;;;;;;;8.26;100.00;103379.22;5261488;28;20095;-77
2023/02/11 09:09:48;;;;;;;46.95;30.83;;;;;;;8.32;100.00;103386.00;5246843;28;20060;-77
2023/02/11 09:12:19;;;;;;;46.28;29.98;;;;;;;8.37;100.00;103386.66;5262820;28;20045;-77
2023/02/11 09:14:50;;;;;;;53.20;31.85;;;;;;;8.39;100.00;103385.75;5247210;28;20392;-77
2023/02/11 09:17:21;;;;;;;44.83;30.27;;;;;;;8.41;100.00;103378.72;5265394;28;20025;-77
2023/02/11 09:19:53;;;;;;;44.20;29.73;;;;;;;8.42;100.00;103380.44;5266896;28;20099;-77
2023/02/11 09:22:24;;;;;;;46.95;30.13;;;;;;;8.43;100.00;103387.34;5261735;28;20079;-77
2023/02/11 09:24:55;;;;;;;48.15;31.75;;;;;;;8.47;100.00;103386.34;5264330;28;20024;-77
2023/02/11 09:27:27;;;;;;;45.15;30.42;;;;;;;8.54;100.00;103394.81;5263570;28;20231;-77
2023/02/11 09:29:58;;;;;;;42.10;29.02;;;;;;;8.57;100.00;103399.09;5263727;28;20477;-76
2023/02/11 09:32:29;;;;;;;40.38;28.17;;;;;;;8.59;100.00;103399.88;5262946;28;20382;-77
2023/02/11 09:35:01;;;;;;;47.45;29.95;;;;;;;8.58;100.00;103404.25;5261915;28;20033;-77
2023/02/11 09:37:32;;;;;;;48.83;31.13;;;;;;;8.50;100.00;103401.91;5266282;28;20073;-77
2023/02/11 09:40:04;;;;;;;50.20;31.00;;;;;;;8.56;100.00;103403.47;5258414;28;20036;-77
2023/02/11 09:43:04;;;;;;;42.00;29.58;;;;;;;8.82;100.00;103415.56;5247906;28;21111;-77
2023/02/11 09:45:36;;;;;;;43.38;28.95;;;;;;;8.65;100.00;103410.13;5260980;28;20039;-77
2023/02/11 09:48:17;;;;;;;48.50;29.90;;;;;;;8.84;100.00;103424.22;5264202;28;20020;-77
2023/02/11 09:50:53;;;;;;;37.95;30.42;;;;;;;8.80;100.00;103422.63;5265160;28;20032;-77
2023/02/11 09:53:39;;;;;;;41.92;29.88;;;;;;;8.87;100.00;103418.91;5267001;28;20535;-76
2023/02/11 09:56:13;;;;;;;42.72;30.73;;;;;;;8.78;100.00;103424.44;5263130;28;20033;-77
2023/02/11 09:58:44;;;;;;;46.97;31.60;;;;;;;8.79;100.00;103420.94;5262723;28;20528;-77
2023/02/11 10:01:28;;;;;;;45.78;31.30;;;;;;;9.00;100.00;103424.50;5263322;28;20063;-77
2023/02/11 10:04:23;;;;;;;46.53;31.63;;;;;;;8.96;100.00;103412.47;5265529;28;20024;-77
2023/02/11 10:07:14;;;;;;;39.80;30.13;;;;;;;9.02;100.00;103426.19;5244730;28;20490;-77
2023/02/11 10:09:48;;;;;;;45.65;30.88;;;;;;;8.90;100.00;103431.84;5270012;28;20569;-77
2023/02/11 10:12:41;;;;;;;45.97;31.30;;;;;;;9.16;100.00;103423.03;5246876;28;20058;-77
2023/02/11 10:15:31;;;;;;;42.33;31.13;;;;;;;9.11;100.00;103429.34;5243355;28;20052;-77
2023/02/11 10:18:30;;;;;;;43.20;31.63;;;;;;;9.27;100.00;103423.47;5264241;28;20295;-77
2023/02/11 10:21:12;;;;;;;45.08;31.52;;;;;;;9.02;100.00;103439.25;5265359;28;20124;-77
2023/02/11 10:23:51;;;;;;;41.42;31.60;;;;;;;9.15;100.00;103438.78;5252341;28;20035;-77
2023/02/11 10:26:22;;;;;;;44.55;32.00;;;;;;;9.02;100.00;103444.47;5258845;28;20144;-77
2023/02/11 10:28:58;;;;;;;44.65;33.38;;;;;;;9.07;100.00;103462.59;5265848;28;20115;-77
2023/02/11 10:31:40;;;;;;;47.85;32.72;;;;;;;9.23;100.00;103461.13;5266809;28;20063;-78
2023/02/11 10:34:14;;;;;;;45.47;32.95;;;;;;;9.19;100.00;103459.53;5264532;28;20036;-77
2023/02/11 10:36:45;;;;;;;48.00;32.88;;;;;;;9.15;100.00;103459.72;5266968;28;20556;-77
2023/02/11 10:39:22;;;;;;;42.22;31.95;;;;;;;9.26;100.00;103460.16;5268868;28;20028;-77
2023/02/11 10:42:03;;;;;;;43.22;30.85;;;;;;;9.26;100.00;103449.69;5265154;28;20067;-77
2023/02/11 10:44:42;;;;;;;47.05;33.25;;;;;;;9.32;100.00;103456.44;5267233;28;20115;-77
2023/02/11 10:47:23;;;;;;;47.55;32.20;;;;;;;9.38;100.00;103458.84;5271278;28;20583;-77
2023/02/11 10:50:02;;;;;;;44.10;33.08;;;;;;;9.26;100.00;103468.88;5269618;28;20116;-77
2023/02/11 10:52:33;;;;;;;51.53;33.92;;;;;;;9.33;100.00;103471.25;5266483;28;20509;-77
2023/02/11 10:55:17;;;;;;;40.60;30.98;;;;;;;9.46;100.00;103472.50;5269592;28;20060;-77
2023/02/11 10:57:57;;;;;;;41.70;30.95;;;;;;;9.32;100.00;103473.03;5264111;28;20033;-77
2023/02/11 11:00:37;;;;;;;45.03;33.83;;;;;;;9.42;100.00;103482.22;5268717;28;20059;-77
2023/02/11 11:03:20;;;;;;;47.45;32.55;;;;;;;9.45;100.00;103482.09;5245153;28;20425;-77
2023/02/11 11:05:56;;;;;;;43.78;33.22;;;;;;;9.38;100.00;103479.78;5262337;28;20028;-77
2023/02/11 11:08:40;;;;;;;42.47;31.50;;;;;;;9.46;100.00;103485.56;5267365;28;20116;-77
2023/02/11 11:11:17;;;;;;;44.75;34.13;;;;;;;9.38;100.00;103480.63;5270185;28;20043;-76
2023/02/11 11:13:51;;;;;;;42.97;31.60;;;;;;;9.44;100.00;103485.66;5269126;28;20029;-77
2023/02/11 11:16:36;;;;;;;45.25;32.13;;;;;;;9.58;100.00;103490.34;5263930;28;20067;-76
2023/02/11 11:19:07;;;;;;;44.88;32.03;;;;;;;9.43;100.00;103481.34;5264713;28;20779;-77
2023/02/11 11:21:44;;;;;;;47.20;33.43;;;;;;;9.49;100.00;103473.22;5269344;28;20028;-77
2023/02/11 11:24:39;;;;;;;42.17;32.03;;;;;;;9.47;100.00;103476.81;5267132;28;20282;-77
2023/02/11 11:27:18;;;;;;;45.60;32.33;;;;;;;9.63;100.00;103474.47;5268968;28;20024;-77
2023/02/11 11:29:53;;;;;;;43.83;31.73;;;;;;;9.65;100.00;103478.72;5268367;28;20021;-77
2023/02/11 11:32:31;;;;;;;44.28;32.90;;;;;;;9.59;100.00;103473.75;5251149;28;20131;-77
2023/02/11 11:35:16;;;;;;;45.20;32.70;;;;;;;9.61;100.00;103481.53;5249874;28;20401;-77
2023/02/11 11:37:57;;;;;;;42.13;32.35;;;;;;;9.72;100.00;103490.66;5265541;28;20029;-77
2023/02/11 11:40:31;;;;;;;45.63;32.75;;;;;;;9.64;100.00;103490.09;5265712;28;20489;-77
2023/02/11 11:43:11;;;;;;;43.47;31.38;;;;;;;9.81;100.00;103494.72;5264945;28;20088;-77
2023/02/11 11:45:57;;;;;;;44.15;32.55;;;;;;;9.86;100.00;103492.75;5268911;28;20044;-77
2023/02/11 11:48:37;;;;;;;41.25;31.50;;;;;;;9.79;100.00;103490.44;5248369;28;20640;-77
2023/02/11 11:51:11;;;;;;;41.90;32.45;;;;;;;9.81;100.00;103499.06;5264405;28;20025;-77